Leucadia, California
Current Conditions -  °F | °C
As of 2:53 PM on Wednesday 26 Nov 2014 (Local Time) from KCRQ Reporting Station
Clear Clear  
Wind Chill: 78°   Ceiling: Unl
Heat Index: 78°   Visibility: 10mi
Dew Point: 30°   Wind: 3mph
Humidity: 17%   Direction: 260°W
Pressure: 30.12"   Gusts: NA
Location:  33.0541°N, 117.25°W
Report Text: KCRQ 262253Z AUTO 26003KT 10SM CLR 26/M01 A3012 RMK AO2 SLP196 T02561011 TSNO
Loading
Personal Weather Stations






























Interactive Weather Map New forecast layout! Learn more

10-Day Weather Forecast

Advertisements
Track Severe Weather on mobile